sensor_id;sensor_type;location;lat;lon;timestamp;pressure;altitude;pressure_sealevel;temperature;humidity
47811;BME280;33575;52.600;7.318;2023-01-15T00:01:23;99420.35;;;6.35;97.73
47811;BME280;33575;52.600;7.318;2023-01-15T00:03:51;99423.74;;;6.33;97.83
47811;BME280;33575;52.600;7.318;2023-01-15T00:06:22;99429.40;;;6.29;97.91
47811;BME280;33575;52.600;7.318;2023-01-15T00:08:52;99428.74;;;6.35;97.98
47811;BME280;33575;52.600;7.318;2023-01-15T00:11:23;99429.95;;;6.25;98.75
47811;BME280;33575;52.600;7.318;2023-01-15T00:13:53;99430.72;;;6.31;98.17
47811;BME280;33575;52.600;7.318;2023-01-15T00:16:24;99430.63;;;6.28;98.60
47811;BME280;33575;52.600;7.318;2023-01-15T00:18:55;99430.25;;;6.01;98.60
47811;BME280;33575;52.600;7.318;2023-01-15T00:21:26;99431.55;;;6.15;99.04
47811;BME280;33575;52.600;7.318;2023-01-15T00:23:55;99425.77;;;6.17;98.15
47811;BME280;33575;52.600;7.318;2023-01-15T00:26:28;99426.03;;;6.12;99.38
47811;BME280;33575;52.600;7.318;2023-01-15T00:28:57;99430.54;;;6.18;98.30
47811;BME280;33575;52.600;7.318;2023-01-15T00:31:28;99430.97;;;6.20;98.18
47811;BME280;33575;52.600;7.318;2023-01-15T00:33:58;99427.86;;;6.21;97.91
47811;BME280;33575;52.600;7.318;2023-01-15T00:36:28;99431.01;;;6.19;98.31
47811;BME280;33575;52.600;7.318;2023-01-15T00:38:59;99436.87;;;6.18;99.07
47811;BME280;33575;52.600;7.318;2023-01-15T00:41:30;99433.42;;;6.04;98.71
47811;BME280;33575;52.600;7.318;2023-01-15T00:44:01;99437.26;;;6.08;98.68
47811;BME280;33575;52.600;7.318;2023-01-15T00:46:31;99444.37;;;6.16;98.19
47811;BME280;33575;52.600;7.318;2023-01-15T00:49:02;99444.87;;;6.24;97.79
47811;BME280;33575;52.600;7.318;2023-01-15T00:51:33;99448.96;;;6.26;98.06
47811;BME280;33575;52.600;7.318;2023-01-15T00:54:04;99447.52;;;6.31;97.58
47811;BME280;33575;52.600;7.318;2023-01-15T00:56:34;99446.54;;;6.21;97.95
47811;BME280;33575;52.600;7.318;2023-01-15T00:59:05;99444.82;;;6.26;97.84
47811;BME280;33575;52.600;7.318;2023-01-15T01:01:35;99443.34;;;6.31;97.29
47811;BME280;33575;52.600;7.318;2023-01-15T01:04:06;99444.65;;;6.31;96.90
47811;BME280;33575;52.600;7.318;2023-01-15T01:06:36;99448.28;;;6.09;98.41
47811;BME280;33575;52.600;7.318;2023-01-15T01:09:08;99447.70;;;6.15;97.69
47811;BME280;33575;52.600;7.318;2023-01-15T01:11:37;99443.81;;;6.16;98.29
47811;BME280;33575;52.600;7.318;2023-01-15T01:14:09;99442.10;;;6.13;98.06
47811;BME280;33575;52.600;7.318;2023-01-15T01:16:40;99443.24;;;6.17;97.21
47811;BME280;33575;52.600;7.318;2023-01-15T01:19:11;99452.61;;;6.16;98.00
47811;BME280;33575;52.600;7.318;2023-01-15T01:21:41;99451.44;;;6.04;98.21
47811;BME280;33575;52.600;7.318;2023-01-15T01:24:13;99447.44;;;6.14;97.61
47811;BME280;33575;52.600;7.318;2023-01-15T01:26:42;99454.07;;;6.04;98.15
47811;BME280;33575;52.600;7.318;2023-01-15T01:29:13;99447.73;;;6.13;97.38
47811;BME280;33575;52.600;7.318;2023-01-15T01:31:43;99450.00;;;6.12;97.76
47811;BME280;33575;52.600;7.318;2023-01-15T01:34:14;99446.82;;;6.06;97.64
47811;BME280;33575;52.600;7.318;2023-01-15T01:36:44;99454.75;;;6.05;98.15
47811;BME280;33575;52.600;7.318;2023-01-15T01:39:16;99459.41;;;5.96;98.05
47811;BME280;33575;52.600;7.318;2023-01-15T01:41:46;99461.88;;;5.99;97.46
47811;BME280;33575;52.600;7.318;2023-01-15T01:46:47;99456.38;;;5.91;97.84
47811;BME280;33575;52.600;7.318;2023-01-15T01:49:17;99453.24;;;6.07;97.58
47811;BME280;33575;52.600;7.318;2023-01-15T01:51:50;99450.99;;;6.15;97.07
47811;BME280;33575;52.600;7.318;2023-01-15T01:54:20;99451.34;;;6.14;96.84
47811;BME280;33575;52.600;7.318;2023-01-15T01:56:50;99447.39;;;6.01;97.67
47811;BME280;33575;52.600;7.318;2023-01-15T01:59:21;99459.23;;;6.03;97.15
47811;BME280;33575;52.600;7.318;2023-01-15T02:01:51;99453.99;;;6.07;96.85
47811;BME280;33575;52.600;7.318;2023-01-15T02:04:24;99457.37;;;5.82;97.78
47811;BME280;33575;52.600;7.318;2023-01-15T02:06:52;99454.21;;;5.85;98.32
47811;BME280;33575;52.600;7.318;2023-01-15T02:09:23;99455.15;;;5.78;97.80
47811;BME280;33575;52.600;7.318;2023-01-15T02:11:57;99458.14;;;5.86;98.13
47811;BME280;33575;52.600;7.318;2023-01-15T02:14:29;99455.90;;;5.80;97.68
47811;BME280;33575;52.600;7.318;2023-01-15T02:16:59;99460.83;;;5.75;97.13
47811;BME280;33575;52.600;7.318;2023-01-15T02:19:32;99465.66;;;5.80;96.95
47811;BME280;33575;52.600;7.318;2023-01-15T02:22:02;99458.62;;;5.79;97.09
47811;BME280;33575;52.600;7.318;2023-01-15T02:24:32;99466.25;;;5.84;97.04
47811;BME280;33575;52.600;7.318;2023-01-15T02:27:02;99465.26;;;5.79;96.17
47811;BME280;33575;52.600;7.318;2023-01-15T02:29:34;99457.24;;;5.74;96.81
47811;BME280;33575;52.600;7.318;2023-01-15T02:32:01;99452.45;;;5.76;97.85
47811;BME280;33575;52.600;7.318;2023-01-15T02:34:33;99465.09;;;5.64;97.12
47811;BME280;33575;52.600;7.318;2023-01-15T02:37:03;99462.44;;;5.77;97.32
47811;BME280;33575;52.600;7.318;2023-01-15T02:39:32;99458.66;;;5.82;96.55
47811;BME280;33575;52.600;7.318;2023-01-15T02:42:03;99449.21;;;5.72;97.22
47811;BME280;33575;52.600;7.318;2023-01-15T02:44:36;99441.14;;;5.85;96.53
47811;BME280;33575;52.600;7.318;2023-01-15T02:47:03;99433.41;;;5.86;96.53
47811;BME280;33575;52.600;7.318;2023-01-15T02:49:35;99439.10;;;5.86;96.61
47811;BME280;33575;52.600;7.318;2023-01-15T02:52:07;99434.71;;;5.89;95.98
47811;BME280;33575;52.600;7.318;2023-01-15T02:54:42;99437.67;;;5.94;95.90
47811;BME280;33575;52.600;7.318;2023-01-15T02:57:06;99445.40;;;5.89;96.40
47811;BME280;33575;52.600;7.318;2023-01-15T02:59:38;99448.32;;;5.87;96.57
47811;BME280;33575;52.600;7.318;2023-01-15T03:02:10;99448.24;;;5.94;96.05
47811;BME280;33575;52.600;7.318;2023-01-15T03:04:40;99447.40;;;5.90;96.41
47811;BME280;33575;52.600;7.318;2023-01-15T03:07:13;99441.98;;;5.90;95.95
47811;BME280;33575;52.600;7.318;2023-01-15T03:09:39;99433.10;;;5.87;96.12
47811;BME280;33575;52.600;7.318;2023-01-15T03:12:14;99422.85;;;5.69;97.45
47811;BME280;33575;52.600;7.318;2023-01-15T03:14:45;99426.66;;;5.70;98.06
47811;BME280;33575;52.600;7.318;2023-01-15T03:17:16;99426.49;;;5.66;96.99
47811;BME280;33575;52.600;7.318;2023-01-15T03:19:46;99434.44;;;5.39;97.59
47811;BME280;33575;52.600;7.318;2023-01-15T03:22:17;99432.92;;;5.64;96.87
47811;BME280;33575;52.600;7.318;2023-01-15T03:24:46;99425.54;;;5.66;96.87
47811;BME280;33575;52.600;7.318;2023-01-15T03:27:14;99424.80;;;5.71;96.57
47811;BME280;33575;52.600;7.318;2023-01-15T03:29:46;99433.71;;;5.67;96.85
47811;BME280;33575;52.600;7.318;2023-01-15T03:32:17;99422.63;;;5.64;96.64
47811;BME280;33575;52.600;7.318;2023-01-15T03:34:50;99412.53;;;5.35;97.11
47811;BME280;33575;52.600;7.318;2023-01-15T03:37:17;99407.64;;;5.55;95.88
47811;BME280;33575;52.600;7.318;2023-01-15T03:39:47;99410.69;;;5.62;95.71
47811;BME280;33575;52.600;7.318;2023-01-15T03:42:28;99399.37;;;5.48;95.89
47811;BME280;33575;52.600;7.318;2023-01-15T03:44:53;99393.49;;;5.37;97.24
47811;BME280;33575;52.600;7.318;2023-01-15T03:47:29;99394.39;;;5.51;96.20
47811;BME280;33575;52.600;7.318;2023-01-15T03:49:55;99397.28;;;5.52;96.23
47811;BME280;33575;52.600;7.318;2023-01-15T03:52:24;99403.02;;;5.56;95.68
47811;BME280;33575;52.600;7.318;2023-01-15T03:54:58;99401.00;;;5.46;96.61
47811;BME280;33575;52.600;7.318;2023-01-15T03:57:27;99406.33;;;5.58;100.00
47811;BME280;33575;52.600;7.318;2023-01-15T03:59:54;99411.07;;;5.67;96.67
47811;BME280;33575;52.600;7.318;2023-01-15T04:02:23;99418.14;;;5.58;95.52
47811;BME280;33575;52.600;7.318;2023-01-15T04:04:53;99418.65;;;5.48;95.69
47811;BME280;33575;52.600;7.318;2023-01-15T04:07:25;99414.72;;;5.48;95.67
47811;BME280;33575;52.600;7.318;2023-01-15T04:09:54;99411.26;;;5.36;96.17
47811;BME280;33575;52.600;7.318;2023-01-15T04:12:25;99413.42;;;5.36;95.73
47811;BME280;33575;52.600;7.318;2023-01-15T04:14:56;99409.44;;;5.29;95.19
47811;BME280;33575;52.600;7.318;2023-01-15T04:17:26;99411.16;;;5.21;95.45
47811;BME280;33575;52.600;7.318;2023-01-15T04:19:57;99402.45;;;5.03;96.14
47811;BME280;33575;52.600;7.318;2023-01-15T04:22:28;99410.23;;;5.21;95.56
47811;BME280;33575;52.600;7.318;2023-01-15T04:24:58;99402.60;;;5.20;94.88
47811;BME280;33575;52.600;7.318;2023-01-15T04:27:29;99399.54;;;5.31;95.01
47811;BME280;33575;52.600;7.318;2023-01-15T04:30:00;99396.23;;;5.20;96.03
47811;BME280;33575;52.600;7.318;2023-01-15T04:32:30;99402.92;;;5.10;96.12
47811;BME280;33575;52.600;7.318;2023-01-15T04:35:01;99393.93;;;5.11;96.50
47811;BME280;33575;52.600;7.318;2023-01-15T04:37:32;99386.73;;;5.16;96.73
47811;BME280;33575;52.600;7.318;2023-01-15T04:40:03;99390.05;;;5.24;95.87
47811;BME280;33575;52.600;7.318;2023-01-15T04:42:33;99392.14;;;5.24;95.78
47811;BME280;33575;52.600;7.318;2023-01-15T04:45:05;99393.85;;;5.31;95.56
47811;BME280;33575;52.600;7.318;2023-01-15T04:47:34;99391.70;;;5.33;95.47
47811;BME280;33575;52.600;7.318;2023-01-15T04:50:06;99390.64;;;5.28;96.68
47811;BME280;33575;52.600;7.318;2023-01-15T04:52:36;99387.84;;;5.17;96.20
47811;BME280;33575;52.600;7.318;2023-01-15T04:55:07;99388.08;;;5.24;95.75
47811;BME280;33575;52.600;7.318;2023-01-15T04:57:37;99388.58;;;5.21;95.87
47811;BME280;33575;52.600;7.318;2023-01-15T05:00:09;99394.72;;;5.11;95.51
47811;BME280;33575;52.600;7.318;2023-01-15T05:02:39;99385.32;;;5.21;95.40
47811;BME280;33575;52.600;7.318;2023-01-15T05:05:09;99394.15;;;5.12;95.09
47811;BME280;33575;52.600;7.318;2023-01-15T05:07:40;99391.22;;;5.08;95.53
47811;BME280;33575;52.600;7.318;2023-01-15T05:10:11;99393.23;;;5.21;95.02
47811;BME280;33575;52.600;7.318;2023-01-15T05:12:42;99390.73;;;5.09;96.14
47811;BME280;33575;52.600;7.318;2023-01-15T05:15:12;99386.77;;;5.13;96.08
47811;BME280;33575;52.600;7.318;2023-01-15T05:17:43;99382.27;;;5.06;96.56
47811;BME280;33575;52.600;7.318;2023-01-15T05:20:14;99380.59;;;5.04;96.02
47811;BME280;33575;52.600;7.318;2023-01-15T05:22:45;99380.83;;;4.94;96.63
47811;BME280;33575;52.600;7.318;2023-01-15T05:25:15;99372.80;;;5.05;95.66
47811;BME280;33575;52.600;7.318;2023-01-15T05:27:46;99387.50;;;5.03;96.15
47811;BME280;33575;52.600;7.318;2023-01-15T05:30:17;99389.74;;;5.10;95.51
47811;BME280;33575;52.600;7.318;2023-01-15T05:32:47;99393.23;;;5.14;95.20
47811;BME280;33575;52.600;7.318;2023-01-15T05:35:18;99382.60;;;5.09;94.86
47811;BME280;33575;52.600;7.318;2023-01-15T05:37:49;99374.33;;;5.09;95.08
47811;BME280;33575;52.600;7.318;2023-01-15T05:40:19;99383.20;;;4.98;95.99
47811;BME280;33575;52.600;7.318;2023-01-15T05:42:50;99383.32;;;5.03;94.51
47811;BME280;33575;52.600;7.318;2023-01-15T05:45:21;99383.73;;;4.94;95.40
47811;BME280;33575;52.600;7.318;2023-01-15T05:47:52;99381.77;;;4.99;95.08
47811;BME280;33575;52.600;7.318;2023-01-15T05:50:22;99388.13;;;4.79;96.23
47811;BME280;33575;52.600;7.318;2023-01-15T05:52:53;99389.49;;;4.80;95.40
47811;BME280;33575;52.600;7.318;2023-01-15T05:55:24;99387.67;;;4.78;95.69
47811;BME280;33575;52.600;7.318;2023-01-15T05:57:54;99385.75;;;4.77;95.75
47811;BME280;33575;52.600;7.318;2023-01-15T06:00:25;99384.35;;;4.66;95.13
47811;BME280;33575;52.600;7.318;2023-01-15T06:02:56;99393.14;;;4.73;95.74
47811;BME280;33575;52.600;7.318;2023-01-15T06:05:26;99391.25;;;4.80;95.14
47811;BME280;33575;52.600;7.318;2023-01-15T06:07:57;99392.21;;;4.81;95.48
47811;BME280;33575;52.600;7.318;2023-01-15T06:10:28;99390.82;;;4.77;95.68
47811;BME280;33575;52.600;7.318;2023-01-15T06:12:58;99391.72;;;4.82;95.56
47811;BME280;33575;52.600;7.318;2023-01-15T06:15:29;99390.25;;;4.61;96.47
47811;BME280;33575;52.600;7.318;2023-01-15T06:18:00;99375.86;;;4.47;96.64
47811;BME280;33575;52.600;7.318;2023-01-15T06:20:31;99377.39;;;4.61;96.49
47811;BME280;33575;52.600;7.318;2023-01-15T06:23:01;99375.92;;;4.60;96.61
47811;BME280;33575;52.600;7.318;2023-01-15T06:25:32;99371.69;;;4.52;96.73
47811;BME280;33575;52.600;7.318;2023-01-15T06:28:03;99375.99;;;4.66;96.41
47811;BME280;33575;52.600;7.318;2023-01-15T06:30:34;99373.64;;;4.45;97.42
47811;BME280;33575;52.600;7.318;2023-01-15T06:33:04;99373.66;;;4.37;97.67
47811;BME280;33575;52.600;7.318;2023-01-15T06:35:34;99361.73;;;4.40;96.46
47811;BME280;33575;52.600;7.318;2023-01-15T06:38:05;99359.80;;;4.36;95.68
47811;BME280;33575;52.600;7.318;2023-01-15T06:40:36;99364.52;;;4.52;95.38
47811;BME280;33575;52.600;7.318;2023-01-15T06:43:08;99371.31;;;4.48;94.21
47811;BME280;33575;52.600;7.318;2023-01-15T06:45:40;99365.16;;;4.42;93.80
47811;BME280;33575;52.600;7.318;2023-01-15T06:48:08;99367.45;;;4.45;94.30
47811;BME280;33575;52.600;7.318;2023-01-15T06:50:39;99373.96;;;4.54;93.29
47811;BME280;33575;52.600;7.318;2023-01-15T06:53:09;99371.82;;;4.45;93.24
47811;BME280;33575;52.600;7.318;2023-01-15T06:55:40;99388.79;;;4.46;92.77
47811;BME280;33575;52.600;7.318;2023-01-15T06:58:11;99402.22;;;4.47;93.15
47811;BME280;33575;52.600;7.318;2023-01-15T07:00:42;99395.94;;;4.49;93.01
47811;BME280;33575;52.600;7.318;2023-01-15T07:03:12;99389.22;;;4.36;93.66
47811;BME280;33575;52.600;7.318;2023-01-15T07:05:43;99387.41;;;4.40;92.44
47811;BME280;33575;52.600;7.318;2023-01-15T07:08:14;99377.36;;;4.19;94.17
47811;BME280;33575;52.600;7.318;2023-01-15T07:10:44;99388.38;;;4.20;93.12
47811;BME280;33575;52.600;7.318;2023-01-15T07:13:15;99390.14;;;4.19;93.41
47811;BME280;33575;52.600;7.318;2023-01-15T07:15:46;99381.87;;;4.28;93.53
47811;BME280;33575;52.600;7.318;2023-01-15T07:18:17;99379.88;;;4.14;93.28
47811;BME280;33575;52.600;7.318;2023-01-15T07:20:47;99379.82;;;4.16;93.36
47811;BME280;33575;52.600;7.318;2023-01-15T07:23:18;99379.03;;;4.17;93.03
47811;BME280;33575;52.600;7.318;2023-01-15T07:25:49;99383.55;;;4.23;93.26
47811;BME280;33575;52.600;7.318;2023-01-15T07:28:20;99375.49;;;4.29;93.11
47811;BME280;33575;52.600;7.318;2023-01-15T07:30:50;99368.97;;;4.15;94.64
47811;BME280;33575;52.600;7.318;2023-01-15T07:33:21;99369.30;;;4.19;93.92
47811;BME280;33575;52.600;7.318;2023-01-15T07:35:52;99369.28;;;4.13;94.40
47811;BME280;33575;52.600;7.318;2023-01-15T07:38:23;99368.98;;;3.87;95.54
47811;BME280;33575;52.600;7.318;2023-01-15T07:40:55;99370.43;;;4.07;93.81
47811;BME280;33575;52.600;7.318;2023-01-15T07:43:24;99367.56;;;3.90;95.10
47811;BME280;33575;52.600;7.318;2023-01-15T07:45:54;99372.86;;;3.92;95.65
47811;BME280;33575;52.600;7.318;2023-01-15T07:48:25;99370.77;;;3.85;95.67
47811;BME280;33575;52.600;7.318;2023-01-15T07:50:56;99374.88;;;4.03;95.16
47811;BME280;33575;52.600;7.318;2023-01-15T07:53:27;99376.08;;;3.98;95.50
47811;BME280;33575;52.600;7.318;2023-01-15T07:55:57;99379.13;;;3.96;96.24
47811;BME280;33575;52.600;7.318;2023-01-15T07:58:28;99383.03;;;3.96;95.99
47811;BME280;33575;52.600;7.318;2023-01-15T08:00:59;99383.38;;;3.91;96.44
47811;BME280;33575;52.600;7.318;2023-01-15T08:03:30;99385.26;;;3.98;96.14
47811;BME280;33575;52.600;7.318;2023-01-15T08:06:00;99382.67;;;4.00;96.04
47811;BME280;33575;52.600;7.318;2023-01-15T08:08:31;99375.55;;;4.00;95.22
47811;BME280;33575;52.600;7.318;2023-01-15T08:11:02;99384.75;;;3.93;94.60
47811;BME280;33575;52.600;7.318;2023-01-15T08:13:33;99385.95;;;3.92;94.75
47811;BME280;33575;52.600;7.318;2023-01-15T08:16:04;99381.48;;;3.92;94.09
47811;BME280;33575;52.600;7.318;2023-01-15T08:18:34;99384.72;;;3.90;92.90
47811;BME280;33575;52.600;7.318;2023-01-15T08:21:05;99383.53;;;4.02;92.66
47811;BME280;33575;52.600;7.318;2023-01-15T08:23:36;99388.47;;;3.89;92.48
47811;BME280;33575;52.600;7.318;2023-01-15T08:26:06;99383.37;;;3.88;92.52
47811;BME280;33575;52.600;7.318;2023-01-15T08:28:37;99380.38;;;3.90;92.35
47811;BME280;33575;52.600;7.318;2023-01-15T08:31:08;99377.01;;;3.76;91.52
47811;BME280;33575;52.600;7.318;2023-01-15T08:33:38;99381.13;;;3.89;91.44
47811;BME280;33575;52.600;7.318;2023-01-15T08:36:09;99378.27;;;3.76;92.23
47811;BME280;33575;52.600;7.318;2023-01-15T08:38:40;99369.58;;;3.81;92.79
47811;BME280;33575;52.600;7.318;2023-01-15T08:41:10;99370.97;;;3.91;92.40
47811;BME280;33575;52.600;7.318;2023-01-15T08:43:41;99370.71;;;3.99;92.58
47811;BME280;33575;52.600;7.318;2023-01-15T08:46:12;99368.71;;;3.96;92.81
47811;BME280;33575;52.600;7.318;2023-01-15T08:48:43;99381.15;;;3.95;93.10
47811;BME280;33575;52.600;7.318;2023-01-15T08:51:14;99380.78;;;4.03;93.21
47811;BME280;33575;52.600;7.318;2023-01-15T08:53:44;99383.55;;;3.94;94.19
47811;BME280;33575;52.600;7.318;2023-01-15T08:56:17;99385.66;;;3.96;94.17
47811;BME280;33575;52.600;7.318;2023-01-15T08:58:46;99384.25;;;4.07;93.44
47811;BME280;33575;52.600;7.318;2023-01-15T09:01:17;99390.44;;;4.03;94.42
47811;BME280;33575;52.600;7.318;2023-01-15T09:03:47;99384.37;;;4.00;94.54
47811;BME280;33575;52.600;7.318;2023-01-15T09:06:18;99385.00;;;3.88;95.63
47811;BME280;33575;52.600;7.318;2023-01-15T09:08:49;99393.11;;;4.07;94.17
47811;BME280;33575;52.600;7.318;2023-01-15T09:11:20;99386.91;;;4.09;94.21
47811;BME280;33575;52.600;7.318;2023-01-15T09:13:50;99383.28;;;3.92;93.96
47811;BME280;33575;52.600;7.318;2023-01-15T09:16:21;99379.92;;;3.98;94.79
47811;BME280;33575;52.600;7.318;2023-01-15T09:18:52;99373.93;;;4.07;94.60
47811;BME280;33575;52.600;7.318;2023-01-15T09:21:22;99364.54;;;3.80;94.28
47811;BME280;33575;52.600;7.318;2023-01-15T09:23:53;99374.01;;;4.03;95.27
47811;BME280;33575;52.600;7.318;2023-01-15T09:26:29;99384.08;;;4.20;94.67
47811;BME280;33575;52.600;7.318;2023-01-15T09:28:55;99374.10;;;4.17;93.91
47811;BME280;33575;52.600;7.318;2023-01-15T09:31:26;99374.96;;;4.32;93.56
47811;BME280;33575;52.600;7.318;2023-01-15T09:33:56;99367.85;;;4.19;93.04
47811;BME280;33575;52.600;7.318;2023-01-15T09:36:29;99363.44;;;4.30;93.66
47811;BME280;33575;52.600;7.318;2023-01-15T09:38:58;99358.93;;;4.20;94.27
47811;BME280;33575;52.600;7.318;2023-01-15T09:41:37;99362.67;;;4.35;93.57
47811;BME280;33575;52.600;7.318;2023-01-15T09:44:07;99360.93;;;4.39;93.49
47811;BME280;33575;52.600;7.318;2023-01-15T09:46:35;99363.53;;;4.40;93.21
47811;BME280;33575;52.600;7.318;2023-01-15T09:49:06;99353.33;;;4.12;94.36
47811;BME280;33575;52.600;7.318;2023-01-15T09:51:34;99358.22;;;4.36;93.85
47811;BME280;33575;52.600;7.318;2023-01-15T09:54:13;99370.84;;;4.47;93.64
47811;BME280;33575;52.600;7.318;2023-01-15T09:56:34;99392.88;;;4.61;94.27
47811;BME280;33575;52.600;7.318;2023-01-15T09:59:13;99367.34;;;4.47;93.97
47811;BME280;33575;52.600;7.318;2023-01-15T10:01:33;99371.91;;;4.63;94.42
47811;BME280;33575;52.600;7.318;2023-01-15T10:04:11;99378.73;;;4.83;92.39
47811;BME280;33575;52.600;7.318;2023-01-15T10:06:37;99384.95;;;4.62;91.40
47811;BME280;33575;52.600;7.318;2023-01-15T10:09:10;99380.83;;;4.68;90.86
47811;BME280;33575;52.600;7.318;2023-01-15T10:11:39;99373.19;;;4.79;92.41
47811;BME280;33575;52.600;7.318;2023-01-15T10:14:12;99376.92;;;4.73;91.98
47811;BME280;33575;52.600;7.318;2023-01-15T10:16:37;99354.46;;;4.79;91.82
47811;BME280;33575;52.600;7.318;2023-01-15T10:19:09;99365.62;;;4.71;91.61
47811;BME280;33575;52.600;7.318;2023-01-15T10:21:44;99367.78;;;4.84;91.24
47811;BME280;33575;52.600;7.318;2023-01-15T10:24:14;99362.25;;;4.42;91.39
47811;BME280;33575;52.600;7.318;2023-01-15T10:26:45;99365.20;;;4.55;92.51
47811;BME280;33575;52.600;7.318;2023-01-15T10:29:16;99362.48;;;4.54;92.86
47811;BME280;33575;52.600;7.318;2023-01-15T10:31:48;99356.56;;;4.64;91.17
47811;BME280;33575;52.600;7.318;2023-01-15T10:34:25;99354.52;;;4.75;91.84
47811;BME280;33575;52.600;7.318;2023-01-15T10:36:47;99349.90;;;4.65;90.86
47811;BME280;33575;52.600;7.318;2023-01-15T10:39:19;99343.63;;;4.98;91.67
47811;BME280;33575;52.600;7.318;2023-01-15T10:41:54;99355.23;;;5.06;91.03
47811;BME280;33575;52.600;7.318;2023-01-15T10:44:19;99353.77;;;4.92;91.69
47811;BME280;33575;52.600;7.318;2023-01-15T10:46:51;99351.53;;;4.90;90.40
47811;BME280;33575;52.600;7.318;2023-01-15T10:49:17;99358.46;;;4.92;89.86
47811;BME280;33575;52.600;7.318;2023-01-15T10:51:50;99353.87;;;5.06;89.92
47811;BME280;33575;52.600;7.318;2023-01-15T10:54:24;99347.76;;;5.01;90.33
47811;BME280;33575;52.600;7.318;2023-01-15T10:56:54;99353.85;;;5.01;90.86
47811;BME280;33575;52.600;7.318;2023-01-15T10:59:22;99346.16;;;5.14;89.98
47811;BME280;33575;52.600;7.318;2023-01-15T11:01:52;99349.69;;;5.08;89.41
47811;BME280;33575;52.600;7.318;2023-01-15T11:04:21;99349.14;;;5.13;88.63
47811;BME280;33575;52.600;7.318;2023-01-15T11:06:51;99353.86;;;5.13;87.96
47811;BME280;33575;52.600;7.318;2023-01-15T11:09:24;99351.01;;;5.29;89.83
47811;BME280;33575;52.600;7.318;2023-01-15T11:12:02;99350.14;;;5.25;89.33
47811;BME280;33575;52.600;7.318;2023-01-15T11:14:32;99356.54;;;5.40;88.90
47811;BME280;33575;52.600;7.318;2023-01-15T11:16:54;99353.29;;;5.38;88.64
47811;BME280;33575;52.600;7.318;2023-01-15T11:19:28;99343.97;;;5.39;89.03
47811;BME280;33575;52.600;7.318;2023-01-15T11:21:56;99346.80;;;5.47;88.12
47811;BME280;33575;52.600;7.318;2023-01-15T11:24:26;99333.91;;;5.34;88.36
47811;BME280;33575;52.600;7.318;2023-01-15T11:26:57;99353.09;;;5.40;88.55
47811;BME280;33575;52.600;7.318;2023-01-15T11:29:31;99338.55;;;5.31;88.81
47811;BME280;33575;52.600;7.318;2023-01-15T11:31:59;99338.62;;;5.33;89.30
47811;BME280;33575;52.600;7.318;2023-01-15T11:34:29;99344.53;;;5.55;88.28
47811;BME280;33575;52.600;7.318;2023-01-15T11:37:01;99345.40;;;5.40;88.03
47811;BME280;33575;52.600;7.318;2023-01-15T11:39:50;99354.39;;;5.22;88.89
47811;BME280;33575;52.600;7.318;2023-01-15T11:42:14;99368.54;;;5.23;88.42
47811;BME280;33575;52.600;7.318;2023-01-15T11:44:32;99370.94;;;5.34;89.77
47811;BME280;33575;52.600;7.318;2023-01-15T11:47:13;99377.70;;;5.19;89.40
47811;BME280;33575;52.600;7.318;2023-01-15T11:49:38;99375.12;;;5.24;89.49
47811;BME280;33575;52.600;7.318;2023-01-15T11:52:07;99385.65;;;5.12;90.37
47811;BME280;33575;52.600;7.318;2023-01-15T11:54:36;99375.82;;;5.02;89.91
47811;BME280;33575;52.600;7.318;2023-01-15T11:57:05;99375.90;;;5.10;90.60
47811;BME280;33575;52.600;7.318;2023-01-15T11:59:38;99379.68;;;5.04;90.31
47811;BME280;33575;52.600;7.318;2023-01-15T12:02:23;99375.60;;;5.31;89.96
47811;BME280;33575;52.600;7.318;2023-01-15T12:04:55;99373.24;;;5.37;89.49
47811;BME280;33575;52.600;7.318;2023-01-15T12:12:18;99367.18;;;5.26;89.82
47811;BME280;33575;52.600;7.318;2023-01-15T12:14:50;99357.76;;;5.27;90.57
47811;BME280;33575;52.600;7.318;2023-01-15T12:17:24;99356.79;;;5.17;89.45
47811;BME280;33575;52.600;7.318;2023-01-15T12:19:47;99353.62;;;5.24;89.71
47811;BME280;33575;52.600;7.318;2023-01-15T12:22:22;99353.59;;;5.24;90.40
47811;BME280;33575;52.600;7.318;2023-01-15T12:27:21;99331.27;;;5.38;89.56
47811;BME280;33575;52.600;7.318;2023-01-15T12:29:47;99329.73;;;5.32;90.02
47811;BME280;33575;52.600;7.318;2023-01-15T12:32:21;99341.73;;;5.34;88.21
47811;BME280;33575;52.600;7.318;2023-01-15T12:34:50;99333.87;;;5.36;88.13
47811;BME280;33575;52.600;7.318;2023-01-15T12:37:19;99325.49;;;5.41;88.05
47811;BME280;33575;52.600;7.318;2023-01-15T12:39:49;99333.73;;;5.45;87.52
47811;BME280;33575;52.600;7.318;2023-01-15T12:42:21;99337.57;;;5.50;88.61
47811;BME280;33575;52.600;7.318;2023-01-15T12:44:50;99333.93;;;5.29;89.36
47811;BME280;33575;52.600;7.318;2023-01-15T12:47:23;99330.64;;;5.34;88.61
47811;BME280;33575;52.600;7.318;2023-01-15T12:49:55;99346.88;;;5.32;89.41
47811;BME280;33575;52.600;7.318;2023-01-15T12:52:25;99347.49;;;5.15;90.97
47811;BME280;33575;52.600;7.318;2023-01-15T12:54:56;99333.68;;;5.04;93.73
47811;BME280;33575;52.600;7.318;2023-01-15T12:57:27;99346.37;;;5.36;91.35
47811;BME280;33575;52.600;7.318;2023-01-15T12:59:58;99345.99;;;5.16;91.48
47811;BME280;33575;52.600;7.318;2023-01-15T13:02:27;99344.63;;;5.16;91.07
47811;BME280;33575;52.600;7.318;2023-01-15T13:05:02;99348.19;;;5.13;90.39
47811;BME280;33575;52.600;7.318;2023-01-15T13:07:30;99345.49;;;5.09;92.04
47811;BME280;33575;52.600;7.318;2023-01-15T13:10:01;99339.24;;;5.19;90.10
47811;BME280;33575;52.600;7.318;2023-01-15T13:12:27;99337.25;;;5.15;90.50
47811;BME280;33575;52.600;7.318;2023-01-15T13:14:56;99332.93;;;5.29;91.38
47811;BME280;33575;52.600;7.318;2023-01-15T13:17:34;99338.03;;;5.12;90.74
47811;BME280;33575;52.600;7.318;2023-01-15T13:20:13;99336.23;;;5.29;89.81
47811;BME280;33575;52.600;7.318;2023-01-15T13:22:29;99348.68;;;5.40;89.52
47811;BME280;33575;52.600;7.318;2023-01-15T13:25:12;99332.55;;;5.20;89.27
47811;BME280;33575;52.600;7.318;2023-01-15T13:27:44;99338.59;;;5.10;89.11
47811;BME280;33575;52.600;7.318;2023-01-15T13:30:15;99347.48;;;5.11;89.55
47811;BME280;33575;52.600;7.318;2023-01-15T13:32:33;99346.29;;;5.16;90.52
47811;BME280;33575;52.600;7.318;2023-01-15T13:35:05;99347.42;;;4.90;90.29
47811;BME280;33575;52.600;7.318;2023-01-15T13:37:35;99347.61;;;5.06;90.31